Terminal Aerodrome Forecast
Issued by NWS

Home | Current Version | Previous Version | Text Only | Print | Product List | Glossary On
Versions: 1 2 3 4 5 6 7 8 9 10 11 12 13 14 15 16 17 18 19 20
000
FTUS45 KBOI 191305 AAA
TAFBKE
TAF AMD
KBKE 191305Z 1913/2012 29004KT P6SM SCT025 OVC070
     FM191500 24006KT P6SM OVC100
     FM192000 VRB04KT P6SM BKN100=

USA.gov is the U.S. government's official web portal to all federal, state and local government web resources and services.